• Join FlightAware (Why Join?)
  • Login
  • US Flag 
12:08AM EDT


 

Airport Tracker/Info


-or-


 

Live Flight TrackerFlight Track Log ✈ QTR46 ✈ 14-Apr-2013 ✈ EGCC / MAN - OTBD

Flight Track Log - Related Links

Times and Time Zones

All times are in EDT time to prevent confusion due to time zone crossing. See the QTR46 flight status page for this flight to view local times or setup timezone preferences in your user account.

Time Position Orientation Groundspeed Altitude Reporting Facility
EDT Latitude Longitude Course Direction KTS MPH feet Rate Location/Type
10:12AM 53.3460 -2.2910 230° Southwest 156 180 800  Level FlightAware
10:12AM 53.3390 -2.3050 230° Southwest 142 163 1,600 -1,380 Climbing FlightAware
10:12AM 53.3370 -2.3101 230° Southwest 168 193 400 -1,320 Descending FlightAware UK
10:13AM 53.3245 -2.3347 230° Southwest 180 207 900 3,720 Climbing FlightAware UK
10:13AM 53.3250 -2.3360 230° Southwest 152 175 2,400 1,380 Climbing FlightAware
10:13AM 53.3184 -2.3724 230° Southwest 200 230 1,600 1,560 Descending FlightAware UK
10:13AM 53.3190 -2.3730 230° Southwest 174 200 3,200 1,980 Climbing FlightAware
10:14AM 53.3245 -2.3957 230° Southwest 192 221 2,200 1,440 Descending FlightAware UK
10:14AM 53.3280 -2.3990 230° Southwest 203 234 3,800 4,800 Climbing FlightAware
10:14AM 53.3440 -2.4120 334° Northwest 226 260 4,200 -1,440 Climbing FlightAware
10:15AM 53.3725 -2.4250 334° Northwest 238 274 2,900 780 Descending FlightAware UK
10:15AM 53.3780 -2.4270 334° Northwest 253 291 4,600 780 Climbing FlightAware
10:15AM 53.4112 -2.4261 334° Northwest 264 304 3,300 1,020 Descending FlightAware UK
10:15AM 53.4050 -2.4300 334° Northwest 317 365 5,200 2,160 Climbing FlightAware
10:16AM 53.4409 -2.3748 334° Northwest 272 313 4,400 1,860 Descending FlightAware UK
10:16AM 53.4460 -2.3460 334° Northwest 308 354 6,300 4,140 Climbing FlightAware
10:16AM 53.4530 -2.2820 80° East 313 360 7,300 120 Climbing FlightAware
10:17AM 53.4588 -2.2328 80° East 276 318 6,400 1,860 Descending FlightAware UK
10:17AM 53.4630 -2.2000 80° East 326 375 8,400 3,840 Climbing FlightAware
10:17AM 53.4680 -2.1380 82° East 327 376 9,100 480 Climbing FlightAware
10:18AM 53.4700 -2.0659 82° East 286 329 8,800 -180 Descending FlightAware UK
10:18AM 53.4664 -2.0219 98° East 298 343 9,000 600 Climbing FlightAware UK
10:18AM 53.4542 -1.9481 106° East 326 375 9,300 840 Climbing FlightAware UK
10:19AM 53.4436 -1.8832 105° East 344 396 9,800 3,000 Climbing FlightAware UK
10:19AM 53.4320 -1.8140 105° East 362 417 12,200 1,800 Climbing FlightAware
10:20AM 53.4164 -1.7203 105° East 354 407 11,600 1,680 Descending FlightAware UK
10:20AM 53.4110 -1.6870 105° East 373 429 13,500 1,560 Climbing FlightAware
10:21AM 53.3964 -1.6029 105° East 362 417 12,700 1,680 Descending FlightAware UK
10:21AM 53.3930 -1.5840 105° East 376 433 14,500 1,800 Climbing FlightAware
10:21AM 53.3815 -1.5176 105° East 366 421 13,600 -660 Descending FlightAware UK
10:21AM 53.3726 -1.4665 106° East 366 421 14,100 4,800 Climbing FlightAware UK
10:21AM 53.3710 -1.4590 106° East 384 442 15,700 1,380 Climbing FlightAware
10:22AM 53.3576 -1.3804 106° East 374 430 14,800 1,500 Descending FlightAware UK
10:22AM 53.3520 -1.3450 106° East 391 450 16,700 1,620 Climbing FlightAware
10:23AM 53.3333 -1.2382 106° East 380 437 16,100 1,560 Descending FlightAware UK
10:23AM 53.3290 -1.2130 106° East 397 457 17,900 1,800 Climbing FlightAware
10:23AM 53.3176 -1.1497 106° East 380 437 17,000 1,620 Descending FlightAware UK
10:24AM 53.3060 -1.0860 106° East 407 468 19,000 1,200 Climbing FlightAware
10:24AM 53.2921 -1.0037 106° East 388 447 18,000 1,200 Descending FlightAware UK
10:24AM 53.2830 -0.9530 106° East 420 483 19,900 5,220 Climbing FlightAware
10:24AM 53.2795 -0.9315 105° East 423 487 20,100 -3,000 Climbing FlightAware ADS-B
10:25AM 53.2692 -0.8725 105° East 404 465 18,900 1,500 Descending FlightAware UK
10:25AM 53.2591 -0.8122 105° East 427 491 21,100 1,620 Climbing FlightAware ADS-B
10:25AM 53.2495 -0.7578 105° East 404 465 19,900 1,260 Descending FlightAware UK
10:26AM 53.2406 -0.7056 105° East 429 494 21,800 1,320 Climbing FlightAware ADS-B
10:26AM 53.2298 -0.6437 105° East 408 470 20,700 1,260 Descending FlightAware UK
10:26AM 53.2160 -0.5630 105° East 435 501 22,800 3,780 Climbing FlightAware
10:27AM 53.2065 -0.5117 107° East 437 503 23,300 -960 Climbing FlightAware ADS-B
10:27AM 53.1953 -0.4493 107° East 416 479 22,300 -1,020 Descending FlightAware UK
10:27AM 53.1848 -0.3906 107° East 418 481 22,700 3,660 Climbing FlightAware UK
10:28AM 53.1732 -0.3252 107° East 451 519 24,700 1,500 Climbing FlightAware ADS-B
10:28AM 53.1634 -0.2707 107° East 424 488 23,600 1,500 Descending FlightAware UK
10:28AM 53.1528 -0.2126 107° East 456 525 25,500 3,180 Climbing FlightAware ADS-B
10:29AM 53.1340 -0.1109 107° East 463 533 26,100 1,260 Climbing FlightAware ADS-B
10:29AM 53.1245 -0.0578 107° East 469 540 26,500 -1,800 Climbing FlightAware ADS-B
10:29AM 53.1173 -0.0035 107° East 438 504 25,200 1,320 Descending FlightAware UK
10:29AM 53.1148 0.0234 107° East 482 555 27,000 3,780 Climbing FlightAware ADS-B
10:30AM 53.1048 0.1340 99° East 487 560 27,600 1,260 Climbing FlightAware ADS-B
10:30AM 53.0946 0.2458 99° East 488 562 28,300 1,260 Climbing FlightAware ADS-B
10:31AM 53.0816 0.3888 99° East 494 568 29,100 -420 Climbing FlightAware ADS-B
10:31AM 53.0731 0.4877 99° East 454 522 27,900 960 Descending FlightAware UK
10:32AM 53.0680 0.5470 99° East 500 575 29,800 4,320 Climbing FlightAware
10:32AM 53.0638 0.5961 98° East 501 577 30,000 -2,040 Climbing FlightAware ADS-B
10:32AM 53.0572 0.6712 98° East 460 529 28,800 960 Descending FlightAware UK
10:32AM 53.0533 0.7170 98° East 505 581 30,500 3,180 Climbing FlightAware ADS-B
10:33AM 53.0430 0.8342 98° East 508 585 31,100 -900 Climbing FlightAware ADS-B
10:33AM 53.0370 0.9024 98° East 464 534 29,800 900 Descending FlightAware UK
10:33AM 53.0319 0.9584 98° East 512 589 31,600 960 Climbing FlightAware ADS-B
10:34AM 53.0245 1.0418 98° East 470 541 30,400 960 Descending FlightAware UK
10:34AM 53.0212 1.0756 98° East 513 590 32,100 780 Climbing FlightAware ADS-B
10:34AM 53.0134 1.1594 98° East 474 545 30,800 780 Descending FlightAware UK
10:34AM 53.0107 1.1890 98° East 515 593 32,500 1,200 Climbing FlightAware ADS-B
10:35AM 53.0047 1.2533 98° East 468 539 31,300 -1,620 Descending FlightAware UK
10:35AM 52.9981 1.3225 99° East 470 541 31,600 4,080 Climbing FlightAware UK
10:35AM 52.9950 1.3510 99° East 509 586 33,300 6,300 Climbing FlightAware
10:35AM 52.9893 1.3915 103° East 507 583 33,500 -2,640 Climbing FlightAware ADS-B
10:35AM 52.9807 1.4602 103° East 466 536 32,200 780 Descending FlightAware UK
10:36AM 52.9721 1.5276 103° East 508 585 34,000 840 Climbing FlightAware ADS-B
10:36AM 52.9601 1.6209 103° East 466 536 32,800 900 Descending FlightAware UK
10:36AM 52.9556 1.6559 103° East 506 582 34,500 960 Climbing FlightAware ADS-B
10:37AM 52.9483 1.7126 103° East 466 536 33,200 900 Descending FlightAware UK
10:37AM 52.9399 1.7781 103° East 504 580 35,000 660 Climbing FlightAware ADS-B
10:37AM 52.9306 1.8484 103° East 460 529 33,600 480 Descending FlightAware UK
10:37AM 52.9220 1.9157 103° East 509 586 35,300 660 Climbing FlightAware ADS-B
10:38AM 52.9040 2.0532 103° East 464 534 34,200 660 Descending FlightAware UK
10:38AM 52.9010 2.0750 103° East 508 585 35,800 720 Climbing FlightAware
10:38AM 52.8920 2.1444 103° East 460 529 34,500 540 Descending FlightAware UK
10:39AM 52.8785 2.2449 103° East 510 587 36,200 420 Climbing FlightAware ADS-B
10:39AM 52.8706 2.3039 103° East 462 532 34,800 540 Descending FlightAware UK
10:40AM 52.8580 2.4000 103° East 512 589 36,600 600 Climbing FlightAware
10:40AM 52.8460 2.4878 103° East 464 534 35,300 600 Descending FlightAware UK
10:40AM 52.8370 2.5540 103° East 508 585 37,000 300 Climbing FlightAware
10:41AM 52.8271 2.6251 103° East 460 529 35,500 -2,700 Descending FlightAware UK
10:41AM 52.8180 2.6924 103° East 458 527 35,500 3,180 Level FlightAware UK
10:41AM 52.8150 2.7230 103° East 508 585 37,000 5,580 Climbing FlightAware
10:41AM 52.8118 2.7515 101° East 508 585 37,000 -3,480 Level FlightAware ADS-B
10:41AM 52.8024 2.8299 101° East 458 527 35,500  Descending FlightAware UK
10:42AM 52.7970 2.8770 101° East 505 581 37,000  Climbing FlightAware
10:42AM 52.7830 2.9885 101° East 458 527 35,500  Descending FlightAware UK
10:42AM 52.7760 3.0460 101° East 510 587 37,000  Climbing FlightAware
10:43AM 52.7663 3.1252 101° East 460 529 35,500  Descending FlightAware UK
10:43AM 52.7570 3.1940 101° East 511 588 37,000  Climbing FlightAware
10:44AM 52.7402 3.3312 101° East 460 529 35,500  Descending FlightAware UK
10:44AM 52.7370 3.3530 101° East 511 588 37,000  Climbing FlightAware
10:44AM 52.7257 3.4456 101° East 456 525 35,500 -2,220 Descending FlightAware UK
10:44AM 52.7166 3.5149 102° East 458 527 35,500 4,080 Level FlightAware UK
10:45AM 52.7150 3.5240 102° East 510 587 37,000  Climbing FlightAware
10:45AM 52.7050 3.6064 102° East 458 527 35,500 -2,400 Descending FlightAware UK
10:45AM 52.6960 3.6747 102° East 458 527 35,500  Level FlightAware UK
10:45AM 52.6871 3.7430 102° East 456 525 35,500 4,080 Level FlightAware UK
10:46AM 52.6860 3.7500 102° East 510 587 37,000  Climbing FlightAware
10:46AM 52.6751 3.8340 102° East 458 527 35,500 -2,400 Descending FlightAware UK
10:46AM 52.6660 3.9022 102° East 458 527 35,500 3,000 Level FlightAware UK
10:46AM 52.6620 3.9360 102° East 510 587 37,000 1,860 Climbing FlightAware
10:47AM 52.6430 4.0760 103° East 510 587 37,000  Level FlightAware
10:48AM 52.6210 4.2400 102° East 510 587 37,000 -1,140 Level FlightAware
10:48AM 52.6022 4.3785 102° East 458 527 35,500  Descending FlightAware UK
10:48AM 52.6030 4.3730 102° East 509 586 37,000 2,160 Climbing FlightAware
10:49AM 52.5820 4.5240 103° East 509 586 37,000  Level FlightAware
10:49AM 52.5670 4.6340 103° East 509 586 37,000 -1,860 Level FlightAware
10:50AM 52.5560 4.7185 103° East 458 527 35,500  Descending FlightAware UK
10:50AM 52.5410 4.8190 103° East 508 585 37,000  Climbing FlightAware
10:51AM 52.5298 4.8987 103° East 458 527 35,500  Descending FlightAware UK
10:51AM 52.5250 4.9360 103° East 509 586 37,000 2,040 Climbing FlightAware
10:51AM 52.5080 5.0490 104° East 509 586 37,000 -1,920 Level FlightAware
10:52AM 52.4990 5.1247 104° East 458 527 35,500  Descending FlightAware UK
10:52AM 52.4790 5.2540 104° East 512 589 37,000  Climbing FlightAware
10:53AM 52.4560 5.3941 104° East 458 527 35,500  Descending FlightAware UK
10:53AM 52.4540 5.4270 104° East 512 589 37,000  Climbing FlightAware
10:53AM 52.4329 5.5523 104° East 460 529 35,500  Descending FlightAware UK
10:54AM 52.4320 5.5780 104° East 511 588 37,000  Climbing FlightAware
10:54AM 52.4203 5.6429 104° East 460 529 35,500  Descending FlightAware UK
10:54AM 52.4090 5.7290 104° East 510 587 37,000  Climbing FlightAware
10:55AM 52.3981 5.8018 104° East 460 529 35,500 -2,580 Descending FlightAware UK
10:55AM 52.3885 5.8695 103° East 460 529 35,500 3,180 Level FlightAware UK
10:55AM 52.3850 5.8930 103° East 509 586 37,000 1,620 Climbing FlightAware
10:56AM 52.3600 6.0580 104° East 509 586 37,000  Level FlightAware
10:56AM 52.3440 6.1600 104° East 509 586 37,000  Level FlightAware
10:57AM 52.3160 6.3420 104° East 509 586 37,000  Level FlightAware
10:58AM 52.2920 6.4940 104° East 508 585 37,000  Level FlightAware
10:58AM 52.2760 6.5960 104° East 508 585 37,000  Level FlightAware
10:59AM 52.2530 6.7450 104° East 510 587 37,000  Level FlightAware
11:00AM 52.2250 6.9170 105° East 512 589 37,000  Level FlightAware
11:00AM 52.2070 7.0310 104° East 513 590 37,000  Level FlightAware
11:01AM 52.1890 7.1410 105° East 515 593 37,000  Level FlightAware
11:01AM 52.1680 7.2730 104° East 515 593 37,000  Level FlightAware
11:02AM 52.1390 7.4460 105° East 514 592 37,000  Level FlightAware
11:03AM 52.1170 7.5800 105° East 512 589 37,000  Level FlightAware
11:03AM 52.0940 7.7180 105° East 512 589 37,000  Level FlightAware
11:04AM 52.0690 7.8640 106° East 511 588 37,000  Level FlightAware
11:05AM 52.0440 8.0090 106° East 509 586 37,000  Level FlightAware
11:05AM 52.0240 8.1300 105° East 509 586 37,000  Level FlightAware
11:06AM 51.9950 8.2920 106° East 510 587 37,000  Level FlightAware
11:07AM 51.9670 8.4570 105° East 512 589 37,000  Level FlightAware
11:07AM 51.9440 8.5870 106° East 513 590 37,000  Level FlightAware
11:08AM 51.9230 8.7050 106° East 514 592 37,000  Level FlightAware
11:08AM 51.8910 8.8820 106° East 515 593 37,000  Level FlightAware
11:09AM 51.8630 9.0380 106° East 515 593 37,000  Level FlightAware
11:10AM 51.8370 9.1830 106° East 517 595 37,000  Level FlightAware
11:10AM 51.8140 9.3090 106° East 518 596 37,000  Level FlightAware
11:11AM 51.7890 9.4410 107° East 518 596 37,000  Level FlightAware
11:12AM 51.7650 9.5740 106° East 516 594 37,000  Level FlightAware
11:12AM 51.7500 9.6510 107° East 516 594 37,000  Level FlightAware
11:13AM 51.7180 9.8240 107° East 514 592 37,000  Level FlightAware
11:13AM 51.6870 9.9840 107° East 513 590 37,000  Level FlightAware
11:14AM 51.6660 10.0960 107° East 510 587 37,000  Level FlightAware
11:15AM 51.6370 10.2440 107° East 510 587 37,000  Level FlightAware
11:15AM 51.6130 10.3680 107° East 510 587 37,000  Level FlightAware
11:16AM 51.5740 10.5680 107° East 512 589 37,000  Level FlightAware
11:17AM 51.5480 10.7020 107° East 37,000  Level FlightAware
11:17AM 51.5200 10.8430 108° East 511 588 37,000  Level FlightAware
11:18AM 51.4820 11.0310 108° East 508 585 37,000  Level FlightAware
11:19AM 51.4440 11.2210 108° East 509 586 37,000  Level FlightAware
11:20AM 51.3910 11.4770 108° East 511 588 37,000  Level FlightAware
11:21AM 51.3730 11.5650 108° East 512 589 37,000  Level FlightAware
11:22AM 51.3400 11.7260 108° East 515 593 37,000  Level FlightAware
11:22AM 51.3230 11.8030 109° East 515 593 37,000  Level FlightAware
11:23AM 51.2820 12.0000 108° East 513 590 37,000  Level FlightAware
11:24AM 51.2170 12.3070 109° East 515 593 37,000  Level FlightAware
11:25AM 51.1570 12.5750 110° East 521 600 37,000  Level FlightAware
11:26AM 51.0960 12.7630 117° Southeast 525 604 37,000  Level FlightAware
11:28AM 51.0000 13.0540 118° Southeast 524 603 37,000  Level FlightAware
11:29AM 50.9330 13.2530 118° Southeast 524 603 37,000  Level FlightAware
11:29AM 50.9090 13.3260 118° Southeast 521 600 37,000  Level FlightAware
11:30AM 50.8350 13.5430 118° Southeast 522 601 37,000  Level FlightAware
11:31AM 50.7550 13.7770 118° Southeast 522 601 37,000  Level FlightAware
11:33AM 50.6670 14.0310 119° Southeast 522 601 37,000  Level FlightAware
11:34AM 50.5920 14.2450 119° Southeast 522 601 37,000  Level FlightAware
11:34AM 50.5660 14.3180 119° Southeast 526 605 37,000  Level FlightAware
11:36AM 50.4290 14.7040 119° Southeast 526 605 37,000  Level FlightAware
11:37AM 50.3360 14.9630 119° Southeast 524 603 37,000  Level FlightAware
11:39AM 50.2450 15.2140 119° Southeast 523 602 37,000  Level FlightAware
11:39AM 50.2070 15.3180 120° Southeast 520 598 37,000  Level FlightAware
11:39AM 50.1800 15.3920 120° Southeast 519 597 37,000  Level FlightAware
11:40AM 50.1050 15.5950 120° Southeast 517 595 37,000  Level FlightAware
11:41AM 50.0550 15.7300 120° Southeast 517 595 37,000  Level FlightAware
11:42AM 50.0220 15.8180 120° Southeast 517 595 37,000  Level FlightAware
11:42AM 49.9730 15.9500 120° Southeast 517 595 37,000  Level FlightAware
11:43AM 49.9310 16.0610 120° Southeast 516 594 37,000  Level FlightAware
11:43AM 49.9010 16.1390 121° Southeast 514 592 37,000  Level FlightAware
11:44AM 49.8470 16.2830 120° Southeast 511 588 37,000  Level FlightAware
11:45AM 49.7680 16.4900 121° Southeast 512 589 37,000  Level FlightAware
11:46AM 49.7320 16.5840 121° Southeast 511 588 37,000  Level FlightAware
11:46AM 49.6790 16.7200 121° Southeast 509 586 37,000  Level FlightAware
11:47AM 49.6390 16.8250 120° Southeast 509 586 37,000  Level FlightAware
11:48AM 49.5940 16.9400 121° Southeast 509 586 37,000  Level FlightAware
11:48AM 49.5460 17.0630 121° Southeast 510 587 37,000  Level FlightAware
11:49AM 49.5020 17.1750 121° Southeast 510 587 37,000  Level FlightAware
11:49AM 49.4590 17.2830 121° Southeast 509 586 37,000  Level FlightAware
11:50AM 49.4060 17.4180 121° Southeast 507 583 37,000  Level FlightAware
11:51AM 49.3620 17.5280 122° Southeast 508 585 37,000  Level FlightAware
11:51AM 49.3210 17.6320 121° Southeast 508 585 37,000  Level FlightAware
11:52AM 49.2670 17.7640 122° Southeast 509 586 37,000  Level FlightAware
11:53AM 49.2130 17.9110 119° Southeast 505 581 37,000  Level FlightAware
11:53AM 49.1670 18.0390 119° Southeast 506 582 37,000  Level FlightAware
11:54AM 49.1220 18.1630 119° Southeast 507 583 37,000  Level FlightAware
11:55AM 49.0760 18.2890 119° Southeast 508 585 37,000  Level FlightAware
11:56AM 49.0200 18.4410 119° Southeast 507 583 37,000  Level FlightAware
11:56AM 48.9650 18.5900 119° Southeast 509 586 37,000  Level FlightAware
11:57AM 48.9270 18.6940 119° Southeast 511 588 37,000  Level FlightAware
11:58AM 48.8790 18.8220 120° Southeast 514 592 37,000  Level FlightAware
11:58AM 48.8370 18.9350 119° Southeast 517 595 37,000  Level FlightAware
11:59AM 48.7970 19.0420 120° Southeast 519 597 37,000  Level FlightAware
11:59AM 48.7540 19.1560 120° Southeast 519 597 37,000  Level FlightAware
12:00PM 48.7140 19.2610 120° Southeast 517 595 37,000  Level FlightAware
12:00PM 48.6780 19.3560 120° Southeast 517 595 37,000  Level FlightAware
12:01PM 48.6230 19.4980 120° Southeast 519 597 37,000  Level FlightAware
12:02PM 48.5870 19.5930 120° Southeast 521 600 37,000  Level FlightAware
12:02PM 48.5450 19.7020 120° Southeast 522 601 37,000  Level FlightAware
12:03PM 48.5050 19.8050 120° Southeast 523 602 37,000  Level FlightAware
12:03PM 48.4630 19.9140 120° Southeast 522 601 37,000  Level FlightAware
12:04PM 48.4060 20.0600 120° Southeast 514 592 37,000  Level FlightAware
12:05PM 48.3500 20.1980 121° Southeast 513 590 37,000  Level FlightAware
12:06PM 48.3050 20.3030 123° Southeast 509 586 37,000  Level FlightAware
12:06PM 48.2700 20.3870 122° Southeast 506 582 37,000  Level FlightAware
12:07PM 48.2040 20.5420 123° Southeast 509 586 37,000  Level FlightAware
12:07PM 48.1670 20.6300 122° Southeast 511 588 37,000  Level FlightAware
12:08PM 48.1210 20.7370 123° Southeast 513 590 37,000  Level FlightAware
12:08PM 48.0840 20.8230 123° Southeast 516 594 37,000  Level FlightAware
12:10PM 47.9990 21.0190 123° Southeast 514 592 37,000  Level FlightAware
12:10PM 47.9640 21.1000 123° Southeast 514 592 37,000  Level FlightAware
12:11PM 47.9010 21.2450 123° Southeast 514 592 37,000  Level FlightAware
12:11PM 47.8500 21.3620 123° Southeast 508 585 37,000  Level FlightAware
12:12PM 47.7860 21.5080 123° Southeast 510 587 37,000  Level FlightAware
12:13PM 47.7350 21.6240 123° Southeast 509 586 37,000  Level FlightAware
12:14PM 47.6760 21.7560 124° Southeast 508 585 37,000  Level FlightAware
12:14PM 47.6300 21.8600 123° Southeast 510 587 37,000  Level FlightAware
12:15PM 47.5950 21.9510 120° Southeast 502 578 37,000  Level FlightAware
12:16PM 47.5460 22.0800 119° Southeast 503 579 37,000  Level FlightAware
12:16PM 47.4920 22.2240 119° Southeast 501 577 37,000  Level FlightAware
12:17PM 47.4520 22.3270 120° Southeast 501 577 37,000  Level FlightAware
12:18PM 47.4050 22.4490 120° Southeast 500 575 37,000  Level FlightAware
12:18PM 47.3660 22.5500 120° Southeast 499 574 37,000  Level FlightAware
12:19PM 47.3300 22.6430 120° Southeast 499 574 37,000  Level FlightAware
12:19PM 47.2990 22.7240 119° Southeast 504 580 37,000  Level FlightAware
12:20PM 47.2490 22.8530 120° Southeast 501 577 37,000  Level FlightAware
12:21PM 47.2070 22.9590 120° Southeast 501 577 37,000  Level FlightAware
12:21PM 47.1610 23.0760 120° Southeast 501 577 37,000  Level FlightAware
12:22PM 47.1240 23.1700 120° Southeast 500 575 37,000  Level FlightAware
12:22PM 47.0770 23.2890 120° Southeast 497 572 37,000  Level FlightAware
12:23PM 47.0360 23.3900 121° Southeast 497 572 37,000  Level FlightAware
12:23PM 46.9950 23.4930 120° Southeast 498 573 37,000  Level FlightAware
12:24PM 46.9610 23.5770 121° Southeast 494 568 37,000  Level FlightAware
12:25PM 46.9150 23.6930 120° Southeast 497 572 37,000  Level FlightAware
12:25PM 46.8810 23.7770 121° Southeast 498 573 37,000  Level FlightAware
12:26PM 46.8380 23.8830 121° Southeast 499 574 37,000  Level FlightAware
12:26PM 46.7910 23.9990 121° Southeast 496 571 37,000  Level FlightAware
12:27PM 46.7520 24.0930 121° Southeast 495 570 37,000  Level FlightAware
12:28PM 46.6970 24.2260 121° Southeast 495 570 37,000  Level FlightAware
12:28PM 46.6600 24.3180 120° Southeast 495 570 37,000  Level FlightAware
12:29PM 46.6150 24.4260 121° Southeast 494 568 37,000  Level FlightAware
12:29PM 46.5870 24.4940 121° Southeast 495 570 37,000  Level FlightAware
12:30PM 46.5460 24.5930 121° Southeast 498 573 37,000  Level FlightAware
12:30PM 46.5100 24.6780 122° Southeast 496 571 37,000  Level FlightAware
12:31PM 46.4480 24.8260 121° Southeast 492 566 37,000  Level FlightAware
12:32PM 46.4000 24.9410 121° Southeast 493 567 37,000  Level FlightAware
12:33PM 46.3560 25.0450 121° Southeast 495 570 37,000  Level FlightAware
12:33PM 46.3060 25.1630 121° Southeast 495 570 37,000  Level FlightAware
12:34PM 46.2640 25.2600 122° Southeast 492 566 37,000  Level FlightAware
12:35PM 46.1830 25.4490 122° Southeast 494 568 37,000  Level FlightAware
12:36PM 46.1330 25.5650 122° Southeast 492 566 37,000  Level FlightAware
12:36PM 46.0900 25.6650 122° Southeast 492 566 37,000  Level FlightAware
12:37PM 46.0320 25.7990 122° Southeast 493 567 37,000  Level FlightAware
12:38PM 45.9770 25.9250 122° Southeast 496 571 37,000  Level FlightAware
12:38PM 45.9350 26.0210 122° Southeast 496 571 37,000  Level FlightAware
12:39PM 45.8900 26.1220 123° Southeast 493 567 37,000  Level FlightAware
12:40PM 45.8480 26.2180 122° Southeast 493 567 37,000  Level FlightAware
12:40PM 45.8050 26.3140 123° Southeast 492 566 37,000  Level FlightAware
12:41PM 45.7640 26.4070 122° Southeast 491 565 37,000  Level FlightAware
12:41PM 45.7200 26.5070 122° Southeast 491 565 37,000  Level FlightAware
12:42PM 45.6590 26.6420 123° Southeast 492 566 37,000  Level FlightAware
12:43PM 45.6250 26.7180 123° Southeast 490 564 37,000  Level FlightAware
12:43PM 45.5700 26.8400 123° Southeast 492 566 37,000  Level FlightAware
12:44PM 45.5260 26.9370 123° Southeast 490 564 37,000  Level FlightAware
12:45PM 45.4820 27.0350 123° Southeast 487 560 37,000  Level FlightAware
12:45PM 45.4390 27.1280 123° Southeast 486 559 37,000  Level FlightAware
12:46PM 45.3650 27.2910 123° Southeast 487 560 37,000  Level FlightAware
12:47PM 45.3230 27.3820 123° Southeast 489 563 37,000  Level FlightAware
12:47PM 45.2890 27.4570 123° Southeast 489 563 37,000  Level FlightAware
12:48PM 45.2440 27.5830 117° Southeast 488 562 37,000  Level FlightAware
12:49PM 45.1980 27.7210 115° Southeast 484 557 37,000  Level FlightAware
12:49PM 45.1590 27.8340 116° Southeast 483 556 37,000  Level FlightAware
12:50PM 45.1030 28.0000 115° Southeast 484 557 37,000  Level FlightAware
12:51PM 45.0770 28.0750 116° Southeast 486 559 37,000  Level FlightAware
12:51PM 45.0400 28.1870 115° Southeast 486 559 37,000  Level FlightAware
12:52PM 45.0040 28.2890 116° Southeast 484 557 37,000  Level FlightAware
12:53PM 44.9570 28.4260 116° Southeast 483 556 37,000  Level FlightAware
12:54PM 44.9080 28.5680 116° Southeast 484 557 37,000  Level FlightAware
12:54PM 44.8700 28.6740 117° Southeast 485 558 37,000  Level FlightAware
12:55PM 44.8250 28.8040 116° Southeast 484 557 37,000  Level FlightAware
12:56PM 44.7880 28.9090 116° Southeast 483 556 37,000  Level FlightAware
12:56PM 44.7470 29.0240 117° Southeast 483 556 37,000  Level FlightAware
12:57PM 44.7090 29.1320 116° Southeast 486 559 37,000  Level FlightAware
12:58PM 44.6630 29.2610 117° Southeast 486 559 37,000  Level FlightAware
12:58PM 44.6280 29.3580 117° Southeast 487 560 37,000  Level FlightAware
12:59PM 44.5770 29.5010 117° Southeast 485 558 37,000  Level FlightAware
01:00PM 44.5160 29.6690 117° Southeast 483 556 37,000  Level FlightAware
01:01PM 44.4820 29.7640 117° Southeast 484 557 37,000  Level FlightAware
01:01PM 44.4640 29.8130 117° Southeast 485 558 37,000  Level FlightAware
01:02PM 44.4150 29.9470 117° Southeast 487 560 37,000  Level FlightAware
01:02PM 44.3770 30.0510 117° Southeast 487 560 37,000  Level FlightAware
01:03PM 44.3320 30.1720 117° Southeast 485 558 37,000  Level FlightAware
01:04PM 44.2950 30.2720 117° Southeast 486 559 37,000  Level FlightAware
01:05PM 44.2410 30.4160 118° Southeast 483 556 37,000  Level FlightAware
01:05PM 44.2060 30.5110 117° Southeast 481 554 37,000  Level FlightAware
01:06PM 44.1570 30.6430 117° Southeast 481 554 37,000  Level FlightAware
01:07PM 44.1200 30.7400 118° Southeast 480 552 37,000  Level FlightAware
01:07PM 44.0870 30.8270 118° Southeast 480 552 37,000  Level FlightAware
01:08PM 44.0340 30.9680 118° Southeast 480 552 37,000  Level FlightAware
01:09PM 43.9970 31.0650 118° Southeast 477 549 37,000  Level FlightAware
01:09PM 43.9510 31.1840 118° Southeast 477 549 37,000  Level FlightAware
01:10PM 43.9060 31.3030 118° Southeast 480 552 37,000  Level FlightAware
01:11PM 43.8640 31.4100 119° Southeast 480 552 37,000  Level FlightAware
01:11PM 43.8150 31.5370 118° Southeast 479 551 37,000  Level FlightAware
01:12PM 43.7740 31.6420 118° Southeast 479 551 37,000  Level FlightAware
01:13PM 43.7320 31.7520 118° Southeast 480 552 37,000  Level FlightAware
01:13PM 43.6940 31.8480 119° Southeast 481 554 37,000  Level FlightAware
01:14PM 43.6570 31.9430 118° Southeast 480 552 37,000  Level FlightAware
01:15PM 43.6170 32.0440 119° Southeast 479 551 37,000  Level FlightAware
01:15PM 43.5700 32.1620 119° Southeast 477 549 37,000  Level FlightAware
01:16PM 43.5310 32.2590 119° Southeast 478 550 37,000  Level FlightAware
01:16PM 43.4980 32.3430 118° Southeast 479 551 37,000 300 Level FlightAware
01:17PM 43.4540 32.4530 119° Southeast 481 554 37,400 480 Climbing FlightAware
01:18PM 43.4000 32.5870 119° Southeast 484 557 37,800 480 Climbing FlightAware
01:19PM 43.3620 32.6820 119° Southeast 484 557 38,100 480 Climbing FlightAware
01:19PM 43.3140 32.8020 119° Southeast 485 558 38,500 480 Climbing FlightAware
01:20PM 43.2790 32.8870 119° Southeast 484 557 38,800 360 Climbing FlightAware
01:21PM 43.2360 32.9920 119° Southeast 485 558 39,000 120 Climbing FlightAware
01:21PM 43.1860 33.1140 119° Southeast 487 560 39,000  Level FlightAware
01:22PM 43.1400 33.2260 119° Southeast 487 560 39,000  Level FlightAware
01:22PM 43.1110 33.2980 119° Southeast 484 557 39,000  Level FlightAware
01:23PM 43.0550 33.4330 120° Southeast 487 560 39,000  Level FlightAware
01:24PM 42.9770 33.6200 120° Southeast 487 560 39,000  Level FlightAware
01:25PM 42.9320 33.7280 120° Southeast 486 559 39,000  Level FlightAware
01:26PM 42.8900 33.8280 120° Southeast 484 557 39,000  Level FlightAware
01:26PM 42.8540 33.9130 120° Southeast 485 558 39,000  Level FlightAware
01:27PM 42.8100 34.0170 120° Southeast 483 556 39,000  Level FlightAware
01:27PM 42.7640 34.1040 126° Southeast 478 550 39,000  Level FlightAware
01:28PM 42.7060 34.1910 132° Southeast 476 548 39,000  Level FlightAware
01:29PM 42.6540 34.2650 134° Southeast 476 548 39,000  Level FlightAware
01:29PM 42.6160 34.3210 133° Southeast 476 548 39,000  Level FlightAware
01:30PM 42.5780 34.3770 133° Southeast 476 548 39,000  Level FlightAware
01:31PM 42.5270 34.4510 133° Southeast 476 548 39,000  Level FlightAware
01:31PM 42.4630 34.5440 133° Southeast 476 548 39,000  Level FlightAware
01:32PM 42.4250 34.5990 133° Southeast 476 548 39,000  Level FlightAware
01:33PM 42.3740 34.6740 133° Southeast 476 548 39,000  Level FlightAware
01:33PM 42.3220 34.7480 134° Southeast 476 548 39,000  Level FlightAware
01:34PM 42.2840 34.8030 133° Southeast 476 548 39,000  Level FlightAware
01:34PM 42.2330 34.8770 133° Southeast 476 548 39,000  Level FlightAware
01:35PM 42.1820 34.9510 133° Southeast 476 548 39,000  Level FlightAware
01:36PM 42.1440 35.0070 132° Southeast 476 548 39,000  Level FlightAware
01:36PM 42.1050 35.0620 134° Southeast 476 548 39,000  Level FlightAware
01:37PM 42.0540 35.1360 133° Southeast 476 548 39,000  Level FlightAware
01:37PM 42.0030 35.2090 133° Southeast 476 548 39,000 -60 Level FlightAware
01:40PM 41.8222 35.4431 136° Southeast  Level Estimated
01:41PM 41.7366 35.5533 136° Southeast  Level Estimated
01:42PM 41.6509 35.6631 136° Southeast  Level Estimated
01:43PM 41.5651 35.7727 136° Southeast  Level Estimated
01:44PM 41.4792 35.8820 136° Southeast  Level Estimated
01:45PM 41.3932 35.9909 136° Southeast  Level Estimated
01:46PM 41.3071 36.0996 137° Southeast  Level Estimated
01:47PM 41.2209 36.2080 137° Southeast  Level Estimated
01:48PM 41.1346 36.3162 137° Southeast  Level Estimated
01:49PM 41.0482 36.4240 137° Southeast  Level Estimated
01:50PM 40.9617 36.5316 137° Southeast  Level Estimated
01:51PM 40.8751 36.6388 137° Southeast  Level Estimated
01:52PM 40.7884 36.7458 137° Southeast  Level Estimated
01:53PM 40.7016 36.8525 137° Southeast  Level Estimated
01:54PM 40.6147 36.9590 137° Southeast  Level Estimated
01:55PM 40.5277 37.0651 137° Southeast  Level Estimated
01:56PM 40.4406 37.1710 137° Southeast  Level Estimated
01:57PM 40.3534 37.2766 137° Southeast  Level Estimated
01:58PM 40.2661 37.3820 137° Southeast  Level Estimated
01:59PM 40.1787 37.4870 137° Southeast  Level Estimated
02:00PM 40.0913 37.5918 137° Southeast  Level Estimated
02:01PM 40.0037 37.6964 138° Southeast  Level Estimated
02:02PM 39.9160 37.8006 138° Southeast  Level Estimated
02:03PM 39.8283 37.9046 138° Southeast  Level Estimated
02:04PM 39.7404 38.0084 138° Southeast  Level Estimated
02:05PM 39.6525 38.1118 138° Southeast  Level Estimated
02:06PM 39.5644 38.2150 138° Southeast  Level Estimated
02:07PM 39.4763 38.3180 138° Southeast  Level Estimated
02:08PM 39.3881 38.4206 138° Southeast  Level Estimated
02:09PM 39.2998 38.5230 138° Southeast  Level Estimated
02:10PM 39.2114 38.6252 138° Southeast  Level Estimated
02:11PM 39.1229 38.7271 138° Southeast  Level Estimated
02:12PM 39.0343 38.8288 138° Southeast  Level Estimated
02:13PM 38.9456 38.9301 138° Southeast  Level Estimated
02:13PM 39.0630 40.6300 138° Southeast 505 581 37,000  Level FlightAware
02:14PM 38.8569 39.0313 138° Southeast  Level Estimated
02:14PM 39.0220 40.7000 127° Southeast 505 581 37,000  Level FlightAware
02:14PM 38.9620 40.8020 127° Southeast 505 581 37,000  Level FlightAware
02:15PM 38.9020 40.9040 127° Southeast 505 581 37,000  Level FlightAware
02:16PM 38.8540 40.9850 127° Southeast 505 581 37,000  Level FlightAware
02:17PM 38.8060 41.0670 127° Southeast 505 581 37,000  Level FlightAware
02:17PM 38.7590 41.1480 127° Southeast 505 581 37,000  Level FlightAware
02:18PM 38.7230 41.2090 127° Southeast 505 581 37,000  Level FlightAware
02:19PM 38.6630 41.3110 127° Southeast 505 581 37,000  Level FlightAware
02:19PM 38.6270 41.3720 127° Southeast 505 581 37,000  Level FlightAware
02:20PM 38.5790 41.4530 127° Southeast 505 581 37,000  Level FlightAware
02:20PM 38.4450 41.6640 129° Southeast 511 588 37,000  Level FlightAware
02:21PM 38.3700 41.7920 127° Southeast 511 588 37,000  Level FlightAware
02:22PM 38.3140 41.8880 127° Southeast 511 588 37,000  Level FlightAware
02:23PM 38.2290 42.0350 126° Southeast 509 586 37,000  Level FlightAware
02:24PM 38.1450 42.1800 126° Southeast 509 586 37,000  Level FlightAware
02:24PM 38.0920 42.2690 127° Southeast 511 588 37,000  Level FlightAware
02:25PM 38.0420 42.3530 127° Southeast 511 588 37,000  Level FlightAware
02:26PM 37.9920 42.4360 127° Southeast 511 588 37,000  Level FlightAware
02:26PM 37.9360 42.5310 127° Southeast 511 588 37,000  Level FlightAware
02:27PM 37.8750 42.6320 127° Southeast 510 587 37,000  Level FlightAware
02:27PM 37.8320 42.6950 131° Southeast 509 586 37,000  Level FlightAware
02:28PM 37.7790 42.7720 131° Southeast 509 586 37,000  Level FlightAware
02:29PM 37.7400 42.8290 131° Southeast 509 586 37,000  Level FlightAware
02:29PM 37.6190 42.9230 148° Southeast 509 586 37,000  Level FlightAware
02:30PM 37.5270 43.0240 139° Southeast 509 586 37,000  Level FlightAware
02:31PM 37.4700 43.0860 139° Southeast 509 586 37,000  Level FlightAware
02:31PM 37.3990 43.1630 139° Southeast 507 583 37,000  Level FlightAware
02:32PM 37.3400 43.2270 139° Southeast 507 583 37,000  Level FlightAware
02:33PM 37.2650 43.3100 139° Southeast 507 583 37,000  Level FlightAware
02:34PM 37.2050 43.3750 139° Southeast 507 583 37,000  Level FlightAware
02:34PM 37.1450 43.4410 139° Southeast 507 583 37,000  Level FlightAware
02:35PM 37.1000 43.4900 139° Southeast 507 583 37,000  Level FlightAware
02:35PM 37.0550 43.5390 139° Southeast 507 583 37,000  Level FlightAware
02:36PM 36.9790 43.6210 139° Southeast 507 583 37,000  Level FlightAware
02:37PM 36.9190 43.6870 139° Southeast 507 583 37,000  Level FlightAware
02:37PM 36.8740 43.7360 139° Southeast 507 583 37,000  Level FlightAware
02:38PM 36.8140 43.8010 139° Southeast 507 583 37,000  Level FlightAware
02:39PM 36.7540 43.8660 139° Southeast 507 583 37,000  Level FlightAware
02:39PM 36.7080 43.9150 139° Southeast 507 583 37,000  Level FlightAware
02:40PM 36.6480 43.9810 139° Southeast 507 583 37,000  Level FlightAware
02:40PM 36.5880 44.0460 139° Southeast 507 583 37,000  Level FlightAware
02:41PM 36.5280 44.1110 139° Southeast 507 583 37,000  Level FlightAware
02:44PM 36.2803 44.2998 148° Southeast  Level Estimated
02:45PM 36.1791 44.3765 149° Southeast  Level Estimated
02:46PM 36.0778 44.4531 149° Southeast  Level Estimated
02:47PM 35.9765 44.5294 149° Southeast  Level Estimated
02:48PM 35.8752 44.6055 149° Southeast  Level Estimated
02:49PM 35.7738 44.6815 149° Southeast  Level Estimated
02:50PM 35.6724 44.7572 149° Southeast  Level Estimated
02:51PM 35.5709 44.8328 149° Southeast  Level Estimated
02:52PM 35.4693 44.9081 149° Southeast  Level Estimated
02:53PM 35.3677 44.9833 149° Southeast  Level Estimated
02:54PM 35.2661 45.0583 149° Southeast  Level Estimated
02:55PM 35.1645 45.1331 149° Southeast  Level Estimated
02:56PM 35.0627 45.2077 149° Southeast  Level Estimated
02:57PM 34.9610 45.2821 149° Southeast  Level Estimated
02:58PM 34.8592 45.3564 149° Southeast  Level Estimated
02:59PM 34.7573 45.4304 149° Southeast  Level Estimated
03:00PM 34.6554 45.5043 149° Southeast  Level Estimated
03:01PM 34.5535 45.5780 149° Southeast  Level Estimated
03:02PM 34.4515 45.6515 149° Southeast  Level Estimated
03:03PM 34.3494 45.7248 149° Southeast  Level Estimated
03:04PM 34.2474 45.7980 149° Southeast  Level Estimated
03:05PM 34.1452 45.8709 149° Southeast  Level Estimated
03:06PM 34.0431 45.9437 149° Southeast  Level Estimated
03:07PM 33.9409 46.0164 149° Southeast  Level Estimated
03:08PM 33.8386 46.0888 150° Southeast  Level Estimated
03:09PM 33.7364 46.1611 150° Southeast  Level Estimated
03:10PM 33.6340 46.2332 150° Southeast  Level Estimated
03:11PM 33.5317 46.3051 150° Southeast  Level Estimated
03:12PM 33.4292 46.3769 150° Southeast  Level Estimated
03:13PM 33.3268 46.4485 150° Southeast  Level Estimated
03:14PM 33.2243 46.5199 150° Southeast  Level Estimated
03:15PM 33.1217 46.5912 150° Southeast  Level Estimated
03:16PM 33.0192 46.6623 150° Southeast  Level Estimated
03:17PM 32.9165 46.7332 150° Southeast  Level Estimated
03:18PM 32.8139 46.8040 150° Southeast  Level Estimated
03:19PM 32.7112 46.8745 150° Southeast  Level Estimated
03:20PM 32.6084 46.9450 150° Southeast  Level Estimated
03:21PM 32.5057 47.0153 150° Southeast  Level Estimated
03:22PM 32.4028 47.0854 150° Southeast  Level Estimated
03:23PM 32.3000 47.1553 150° Southeast  Level Estimated
03:24PM 32.1971 47.2252 150° Southeast  Level Estimated
03:25PM 32.0942 47.2948 150° Southeast  Level Estimated
03:25PM 30.8830 47.4540 150° Southeast 506 582 39,000  Level FlightAware
03:26PM 31.9912 47.3643 150° Southeast  Level Estimated
03:26PM 30.7930 47.5480 138° Southeast 507 583 39,000  Level FlightAware
03:27PM 30.7010 47.6440 138° Southeast 509 586 39,000  Level FlightAware
03:28PM 30.6110 47.7380 138° Southeast 507 583 39,000  Level FlightAware
03:29PM 30.5310 47.8210 138° Southeast 505 581 39,000  Level FlightAware
03:29PM 30.4550 47.8990 138° Southeast 507 583 39,000  Level FlightAware
03:30PM 30.3890 47.9690 138° Southeast 506 582 39,000  Level FlightAware
03:31PM 30.3200 48.0400 138° Southeast 504 580 39,000  Level FlightAware
03:31PM 30.2470 48.1150 138° Southeast 502 578 39,000  Level FlightAware
03:32PM 30.1880 48.1760 138° Southeast 502 578 39,000  Level FlightAware
03:33PM 30.1300 48.2370 138° Southeast 502 578 39,000  Level FlightAware
03:33PM 30.0000 48.3040 156° South 483 556 39,000  Level FlightAware
03:34PM 29.9210 48.3560 150° Southeast 482 555 39,000  Level FlightAware
03:35PM 29.8440 48.4070 150° Southeast 478 550 39,000  Level FlightAware
03:35PM 29.7730 48.4540 150° Southeast 476 548 39,000  Level FlightAware
03:36PM 29.6450 48.5370 151° Southeast 480 552 39,000  Level FlightAware
03:37PM 29.5800 48.5790 151° Southeast 481 554 39,000  Level FlightAware
03:38PM 29.4770 48.6460 150° Southeast 481 554 39,000  Level FlightAware
03:38PM 29.4220 48.6820 150° Southeast 482 555 39,000  Level FlightAware
03:39PM 29.3190 48.7480 151° Southeast 489 563 39,000  Level FlightAware
03:40PM 29.2520 48.7910 151° Southeast 490 564 39,000  Level FlightAware
03:41PM 29.1700 48.8450 150° Southeast 490 564 39,000  Level FlightAware
03:41PM 29.0860 48.8980 151° Southeast 487 560 39,000  Level FlightAware
03:42PM 29.0120 48.9460 150° Southeast 487 560 39,000  Level FlightAware
03:43PM 28.9160 49.0070 151° Southeast 486 559 39,000  Level FlightAware
03:44PM 28.8230 49.0660 151° Southeast 484 557 39,000  Level FlightAware
03:44PM 28.7590 49.1070 151° Southeast 484 557 39,000  Level FlightAware
03:45PM 28.6710 49.1620 151° Southeast 484 557 39,000  Level FlightAware
03:45PM 28.5910 49.2140 150° Southeast 484 557 39,000  Level FlightAware
03:46PM 28.4940 49.2760 151° Southeast 484 557 39,000  Level FlightAware
03:47PM 28.4060 49.3310 151° Southeast 484 557 39,000  Level FlightAware
03:48PM 28.3270 49.3800 151° Southeast 484 557 39,000  Level FlightAware
03:48PM 28.2680 49.4190 150° Southeast 484 557 39,000  Level FlightAware
03:49PM 28.1760 49.4750 152° Southeast 493 567 39,000  Level FlightAware
03:50PM 28.0800 49.5400 149° Southeast 500 575 39,000  Level FlightAware
03:50PM 28.0170 49.5910 144° Southeast 507 583 39,000  Level FlightAware
03:51PM 27.8930 49.6920 144° Southeast 499 574 39,000  Level FlightAware
03:52PM 27.8120 49.7580 144° Southeast 500 575 39,000  Level FlightAware
03:53PM 27.7380 49.8190 144° Southeast 500 575 39,000  Level FlightAware
03:54PM 27.6750 49.8710 144° Southeast 500 575 39,000  Level FlightAware
03:54PM 27.6110 49.9230 144° Southeast 500 575 39,000  Level FlightAware
03:55PM 27.5470 49.9750 144° Southeast 500 575 39,000  Level FlightAware
03:56PM 27.4840 50.0270 144° Southeast 500 575 39,000  Level FlightAware
03:56PM 27.4040 50.0920 144° Southeast 500 575 39,000  Level FlightAware
03:57PM 27.3410 50.1440 144° Southeast 500 575 39,000  Level FlightAware
03:58PM 27.2770 50.1960 144° Southeast 500 575 39,000  Level FlightAware
03:58PM 27.2130 50.2480 144° Southeast 500 575 39,000  Level FlightAware
03:59PM 27.1500 50.3000 144° Southeast 500 575 39,000  Level FlightAware
04:00PM 27.0860 50.3520 144° Southeast 500 575 39,000  Level FlightAware
04:00PM 27.0220 50.4040 144° Southeast 500 575 39,000  Level FlightAware
04:01PM 26.9590 50.4560 144° Southeast 500 575 39,000 -6,000 Level FlightAware
04:02PM 26.6810 50.6240 152° Southeast 29,400 -10,020 Descending FlightAware
04:02PM 26.6580 50.6520 133° Southeast 484 557 29,000 -1,740 Descending FlightAware
04:03PM 26.5610 50.7920 128° Southeast 462 532 27,000 -1,680 Descending FlightAware
04:04PM 26.5010 50.8790 128° Southeast 454 522 25,800 -1,380 Descending FlightAware
04:05PM 26.4500 50.9520 128° Southeast 447 514 25,100 -600 Descending FlightAware
04:05PM 26.3990 51.0260 128° Southeast 449 517 25,000 -120 Descending FlightAware
04:06PM 26.3430 51.1060 128° Southeast 450 518 25,000  Level FlightAware
04:07PM 26.2720 51.2080 128° Southeast 449 517 25,000  Level FlightAware
04:08PM 26.2200 51.2830 128° Southeast 452 520 25,000 -180 Level FlightAware
04:08PM 26.1630 51.3660 127° Southeast 453 521 24,800 -420 Descending FlightAware
04:10PM 26.0990 51.5070 117° Southeast 433 498 24,200 -300 Descending FlightAware
04:12PM 25.8681 51.5231 176° South  Level Estimated
04:12PM 26.0000 51.7270 176° South 340 391 23,900  Level FlightAware
04:12PM 25.9870 51.7400 138° Southeast 327 376 23,800 -540 Descending FlightAware
04:13PM 25.9030 51.7610 167° South 309 356 23,300 -420 Descending FlightAware
04:14PM 25.8030 51.7740 173° South 307 353 23,000 -180 Descending FlightAware
04:15PM 25.7100 51.7860 173° South 306 352 23,000  Level FlightAware
04:16PM 25.6060 51.7990 174° South 306 352 23,000 -180 Level FlightAware
04:17PM 25.5060 51.8120 173° South 305 351 22,700 -420 Descending FlightAware
04:19PM 25.4080 51.8720 151° Southeast 338 389 22,000 -420 Descending FlightAware
04:19PM 25.4170 51.9240 79° East 337 388 22,000  Level FlightAware
04:20PM 25.4620 51.9730 45° Northeast 329 379 22,000  Level FlightAware
04:20PM 25.4810 51.9860 32° Northeast 325 374 22,000  Level FlightAware
04:21PM 25.5350 51.9830 357° North 289 333 22,000  Level FlightAware
04:21PM 25.5520 51.9690 323° Northwest 277 319 22,000  Level FlightAware
04:22PM 25.5670 51.9340 295° West 262 302 22,000  Level FlightAware
04:22PM 25.5640 51.9000 264° West 255 293 22,000  Level FlightAware
04:22PM 25.5560 51.8820 244° Southwest 255 293 22,000  Level FlightAware
04:23PM 25.5260 51.8490 225° Southwest 262 302 22,000 -360 Level FlightAware
04:24PM 25.4920 51.8150 222° Southwest 263 303 21,600 -780 Descending FlightAware
04:24PM 25.4740 51.8030 211° Southwest 270 311 21,300 -1,200 Descending FlightAware
04:24PM 25.4550 51.7980 193° South 274 315 21,000 -960 Descending FlightAware
04:25PM 25.4180 51.8100 164° South 303 349 20,600 -900 Descending FlightAware
04:25PM 25.4060 51.8240 133° Southeast 308 354 20,400 -1,200 Descending FlightAware
04:25PM 25.3980 51.8440 114° Southeast 317 365 20,100 -1,080 Descending FlightAware
04:26PM 25.4040 51.8920 82° East 313 360 19,600 -960 Descending FlightAware
04:26PM 25.4190 51.9100 47° Northeast 309 356 19,400 -1,020 Descending FlightAware
04:26PM 25.4620 51.9540 43° Northeast 307 353 18,700 -1,080 Descending FlightAware
04:27PM 25.4970 51.9760 30° Northeast 281 323 18,200 -1,020 Descending FlightAware
04:27PM 25.5320 51.9700 351° North 269 310 17,800 -1,080 Descending FlightAware
04:28PM 25.5470 51.9580 324° Northwest 262 302 17,500 -1,020 Descending FlightAware
04:28PM 25.5570 51.9410 303° West 254 292 17,300 -840 Descending FlightAware
04:28PM 25.5620 51.9230 287° West 245 282 17,100 -720 Descending FlightAware
04:29PM 25.5570 51.8870 261° West 245 282 16,700 -900 Descending FlightAware
04:29PM 25.5390 51.8630 230° Southwest 248 285 16,300 -720 Descending FlightAware
04:30PM 25.5040 51.8270 223° Southwest 243 280 16,000 -300 Descending FlightAware
04:30PM 25.4760 51.8040 217° Southwest 262 302 16,000 -300 Level FlightAware
04:30PM 25.4580 51.8000 191° South 277 319 15,800 -1,080 Descending FlightAware
04:31PM 25.4310 51.8100 162° South 291 335 15,400 -1,080 Descending FlightAware
04:31PM 25.4160 51.8340 125° Southeast 304 350 15,100 -840 Descending FlightAware
04:31PM 25.4130 51.8480 103° East 302 348 15,000 -1,020 Descending FlightAware
04:32PM 25.4190 51.8770 77° East 291 335 14,600 -1,020 Descending FlightAware
04:32PM 25.4280 51.8890 50° Northeast 278 320 14,500 -900 Descending FlightAware
04:32PM 25.4570 51.9190 43° Northeast 281 323 14,000 -1,080 Descending FlightAware
04:33PM 25.4990 51.9530 36° Northeast 271 312 13,300 -1,080 Descending FlightAware
04:33PM 25.5330 51.9490 354° North 253 291 12,800 -960 Descending FlightAware
04:34PM 25.5470 51.9360 320° Northwest 245 282 12,600 -1,020 Descending FlightAware
04:34PM 25.5550 51.9200 299° West 240 276 12,300 -960 Descending FlightAware
04:34PM 25.5570 51.9090 281° West 237 273 12,200 -1,080 Descending FlightAware
04:35PM 25.5480 51.8740 254° West 237 273 11,600 -1,080 Descending FlightAware
04:35PM 25.5370 51.8610 227° Southwest 238 274 11,400 -600 Descending FlightAware
04:36PM 25.5040 51.8270 223° Southwest 239 275 11,100 -240 Descending FlightAware
04:36PM 25.4620 51.8060 204° Southwest 241 277 11,100  Level FlightAware
04:37PM 25.4160 51.8060 180° South 241 277 11,100  Level FlightAware
04:38PM 25.3670 51.8080 178° South 241 277 11,100  Level FlightAware
04:38PM 25.3150 51.8090 179° South 243 280 11,100 -180 Level FlightAware
04:39PM 25.2700 51.8010 189° South 242 278 10,900 -480 Descending FlightAware
04:39PM 25.2630 51.7930 226° Southwest 238 274 10,700 -1,020 Descending FlightAware
04:40PM 25.2560 51.7700 251° West 237 273 10,400 -1,020 Descending FlightAware
04:40PM 25.2730 51.7330 297° West 249 287 9,800 -1,080 Descending FlightAware
04:41PM 25.3170 51.7170 342° North 251 289 9,100 -1,080 Descending FlightAware
04:41PM 25.3510 51.7070 345° North 252 290 8,600 -960 Descending FlightAware
04:42PM 25.3680 51.7020 345° North 254 292 8,400 -1,020 Descending FlightAware
04:42PM 25.4140 51.6890 346° North 253 291 7,700 -1,020 Descending FlightAware
04:43PM 25.4430 51.6810 346° North 252 290 7,300 -1,080 Descending FlightAware
04:43PM 25.4530 51.6740 328° Northwest 238 274 7,100 -420 Descending FlightAware
04:43PM 25.4620 51.6540 296° West 223 257 7,100  Level FlightAware
04:44PM 25.4660 51.6290 280° West 223 257 7,100  Level FlightAware
04:44PM 25.4530 51.6100 233° Southwest 224 258 7,100  Level FlightAware
04:44PM 25.4440 51.5770 253° West 224 258 7,100  Level FlightAware
04:45PM 25.4350 51.5430 254° West 224 258 7,100  Level FlightAware
04:45PM 25.4300 51.5270 251° West 224 258 7,100 -300 Level FlightAware
04:45PM 25.4230 51.5000 254° West 224 258 6,900 -480 Descending FlightAware
04:46PM 25.4150 51.4720 252° West 223 257 6,700 -600 Descending FlightAware
04:46PM 25.4060 51.4390 253° West 222 255 6,400 -420 Descending FlightAware
04:49PM 25.2611 51.5651 142° Southeast  Level Estimated
04:49PM 25.4690 51.3100 142° Southeast 242 278 5,400  Level FlightAware
04:49PM 25.4840 51.3040 340° North 239 275 5,300 -420 Descending FlightAware
04:50PM 25.5160 51.2910 340° North 238 274 5,100 -420 Descending FlightAware
04:50PM 25.5460 51.2790 340° North 223 257 4,900 -480 Descending FlightAware
04:51PM 25.5660 51.2740 347° North 223 257 4,700 -600 Descending FlightAware
04:51PM 25.5910 51.3000 43° Northeast 216 249 4,400 -540 Descending FlightAware
04:52PM 25.5830 51.3230 111° Southeast 208 239 4,200 -480 Descending FlightAware
04:52PM 25.5630 51.3470 133° Southeast 201 231 4,000 -420 Descending FlightAware
04:53PM 25.5440 51.3700 132° Southeast 195 224 3,800 -360 Descending FlightAware
04:53PM 25.5270 51.3900 133° Southeast 201 231 3,700 -360 Descending FlightAware
04:54PM 25.5070 51.4140 133° Southeast 195 224 3,500 -360 Descending FlightAware
04:54PM 25.4920 51.4320 133° Southeast 201 231 3,400 -300 Descending FlightAware
04:54PM 25.4820 51.4440 133° Southeast 194 223 3,300 -420 Descending FlightAware
04:55PM 25.4640 51.4650 134° Southeast 180 207 3,100 -300 Descending FlightAware
04:55PM 25.4550 51.4760 132° Southeast 174 200 3,100 -180 Level FlightAware
04:55PM 25.4380 51.4870 150° Southeast 162 186 3,000 -360 Descending FlightAware
04:56PM 25.4170 51.4960 159° South 161 185 2,800 -360 Descending FlightAware
04:56PM 25.3980 51.5050 157° South 161 185 2,700 -360 Descending FlightAware
04:57PM 25.3760 51.5140 160° South 161 185 2,500 -540 Descending FlightAware
04:57PM 25.3660 51.5190 156° South 157 181 2,300 -1,080 Descending FlightAware
04:58PM 25.3480 51.5270 158° South 144 166 1,800 -1,020 Descending FlightAware
04:58PM 25.3300 51.5350 158° South 125 144 1,400 -720 Descending FlightAware
04:59PM 25.3130 51.5420 160° South 123 142 1,100 -660 Descending FlightAware
04:59PM 25.2990 51.5490 156° South 122 140 800 -780 Descending FlightAware
04:59PM 25.2820 51.5560 160° South 122 140 400 -540 Descending FlightAware
05:00PM 25.2620 51.5660 156° South 122 140 200 -300 Descending FlightAware
05:03PM 25.2611 51.5651 224° Southwest  Level Estimated
05:04PM 25.2611 51.5651 216° Southwest  Level Estimated
05:05PM 25.2611 51.5651 216° Southwest  Level Estimated
05:06PM 25.2611 51.5651 216° Southwest  Level Estimated
05:07PM 25.2611 51.5651 216° Southwest  Level Estimated
05:08PM 25.2611 51.5651 216° Southwest  Level Estimated
05:09PM 25.2611 51.5651 216° Southwest  Level Estimated
05:10PM 25.2611 51.5651 216° Southwest  Level Estimated
05:11PM 25.2611 51.5651 216° Southwest  Level Estimated
05:12PM 25.2611 51.5651 216° Southwest  Level Estimated
05:13PM 25.2611 51.5651 216° Southwest  Level Estimated
05:14PM 25.2611 51.5651 216° Southwest  Level Estimated
05:15PM 25.2611 51.5651 216° Southwest  Level Estimated
05:16PM 25.2611 51.5651 216° Southwest  Level Estimated
05:17PM 25.2611 51.5651 216° Southwest  Level Estimated
05:18PM 25.2611 51.5651 216° Southwest  Level Estimated